createdAt,value
2018-10-01T00:00:27.643Z,61.30
2018-10-01T00:02:56.561Z,61.30
2018-10-01T00:05:25.509Z,61.40
2018-10-01T00:07:54.435Z,61.30
2018-10-01T00:10:23.410Z,61.30
2018-10-01T00:12:52.349Z,61.40
2018-10-01T00:15:21.292Z,61.40
2018-10-01T00:17:50.089Z,61.40
2018-10-01T00:20:24.347Z,61.50
2018-10-01T00:22:53.261Z,61.60
2018-10-01T00:25:21.984Z,61.60
2018-10-01T00:27:50.772Z,61.80
2018-10-01T00:30:19.793Z,61.80
2018-10-01T00:32:48.392Z,62.70
2018-10-01T00:35:17.115Z,61.80
2018-10-01T00:37:46.106Z,62.00
2018-10-01T00:40:15.073Z,62.00
2018-10-01T00:42:44.004Z,62.00
2018-10-01T00:45:12.619Z,62.20
2018-10-01T00:47:41.287Z,62.30
2018-10-01T00:50:10.074Z,62.40
2018-10-01T00:52:39.026Z,62.40
2018-10-01T00:55:08.068Z,62.50
2018-10-01T00:57:36.624Z,62.60
2018-10-01T01:00:05.476Z,62.70
2018-10-01T01:02:34.066Z,62.80
2018-10-01T01:05:02.629Z,62.80
2018-10-01T01:07:31.587Z,63.00
2018-10-01T01:10:00.316Z,63.10
2018-10-01T01:12:28.987Z,63.10
2018-10-01T01:14:58.003Z,63.00
2018-10-01T01:17:26.878Z,63.00
2018-10-01T01:19:55.582Z,63.00
2018-10-01T01:22:24.404Z,63.00
2018-10-01T01:24:53.307Z,63.00
2018-10-01T01:27:22.225Z,63.10
2018-10-01T01:29:51.202Z,63.20
2018-10-01T01:32:20.135Z,63.20
2018-10-01T01:34:48.953Z,63.40
2018-10-01T01:37:17.791Z,63.30
2018-10-01T01:39:46.968Z,63.50
2018-10-01T01:42:15.990Z,63.50
2018-10-01T01:44:45.012Z,63.50
2018-10-01T01:47:13.951Z,63.50
2018-10-01T01:49:42.944Z,63.60
2018-10-01T01:52:11.869Z,64.40
2018-10-01T01:54:40.840Z,63.60
2018-10-01T01:57:09.784Z,63.70
2018-10-01T01:59:38.769Z,64.60
2018-10-01T02:02:07.749Z,63.80
2018-10-01T02:04:36.728Z,63.80
2018-10-01T02:07:05.695Z,63.90
2018-10-01T02:09:34.668Z,64.00
2018-10-01T02:12:03.627Z,64.10
2018-10-01T02:14:32.420Z,64.10
2018-10-01T02:17:01.362Z,64.20
2018-10-01T02:19:30.344Z,64.20
2018-10-01T02:21:59.336Z,64.10
2018-10-01T02:24:28.341Z,64.20
2018-10-01T02:26:57.275Z,64.20
2018-10-01T02:29:26.392Z,64.30
2018-10-01T02:31:55.352Z,64.20
2018-10-01T02:34:24.502Z,64.30
2018-10-01T02:36:53.423Z,64.30
2018-10-01T02:39:22.416Z,64.30
2018-10-01T02:41:51.338Z,64.30
2018-10-01T02:44:20.342Z,64.40
2018-10-01T02:46:49.377Z,64.40
2018-10-01T02:49:18.312Z,64.50
2018-10-01T02:51:52.176Z,64.50
2018-10-01T02:54:26.263Z,64.50
2018-10-01T02:56:55.230Z,64.60
2018-10-01T02:59:24.248Z,64.50
2018-10-01T03:01:53.167Z,64.60
2018-10-01T03:04:22.150Z,64.70
2018-10-01T03:06:51.113Z,64.70
2018-10-01T03:09:19.815Z,64.80
2018-10-01T03:11:48.812Z,64.80
2018-10-01T03:14:17.870Z,64.80
2018-10-01T03:16:46.600Z,64.80
2018-10-01T03:19:15.606Z,65.00
2018-10-01T03:21:44.579Z,65.00
2018-10-01T03:24:13.600Z,65.10
2018-10-01T03:26:42.541Z,65.10
2018-10-01T03:29:11.606Z,65.10
2018-10-01T03:31:40.408Z,65.20
2018-10-01T03:34:09.237Z,65.20
2018-10-01T03:36:37.841Z,66.00
2018-10-01T03:39:08.615Z,65.30
2018-10-01T03:41:37.440Z,65.30
2018-10-01T03:44:06.063Z,65.30
2018-10-01T03:46:34.581Z,65.30
2018-10-01T03:49:03.140Z,65.40
2018-10-01T03:51:32.085Z,65.40
2018-10-01T03:54:01.090Z,65.40
2018-10-01T03:56:29.613Z,65.40
2018-10-01T03:58:58.239Z,65.50
2018-10-01T04:01:26.877Z,65.50
2018-10-01T04:03:55.440Z,65.50
2018-10-01T04:06:23.947Z,65.50
2018-10-01T04:08:52.486Z,65.50
2018-10-01T04:11:21.052Z,65.60
2018-10-01T04:13:49.723Z,65.70
2018-10-01T04:16:18.321Z,65.80
2018-10-01T04:18:46.927Z,65.80
2018-10-01T04:21:15.921Z,65.90
2018-10-01T04:23:44.570Z,65.90
2018-10-01T04:26:13.099Z,65.90
2018-10-01T04:28:41.796Z,66.00
2018-10-01T04:31:10.523Z,66.30
2018-10-01T04:33:39.334Z,65.90
2018-10-01T04:36:08.148Z,65.90
2018-10-01T04:38:37.045Z,65.90
2018-10-01T04:41:06.034Z,65.90
2018-10-01T04:43:35.035Z,65.90
2018-10-01T04:46:04.222Z,65.90
2018-10-01T04:48:33.266Z,65.90
2018-10-01T04:51:02.135Z,66.00
2018-10-01T04:53:31.156Z,66.10
2018-10-01T04:55:59.830Z,66.20
2018-10-01T04:58:28.602Z,66.30
2018-10-01T05:00:57.058Z,66.30
2018-10-01T05:03:25.614Z,66.40
2018-10-01T05:05:54.204Z,66.40
2018-10-01T05:08:22.836Z,66.40
2018-10-01T05:10:51.563Z,66.50
2018-10-01T05:13:20.423Z,66.60
2018-10-01T05:15:49.834Z,66.60
2018-10-01T05:18:19.356Z,66.60
2018-10-01T05:20:47.998Z,66.60
2018-10-01T05:23:16.520Z,66.60
2018-10-01T05:25:45.058Z,66.60
2018-10-01T05:28:13.635Z,66.80
2018-10-01T05:30:43.477Z,66.90
2018-10-01T05:33:12.265Z,66.80
2018-10-01T05:35:40.712Z,66.90
2018-10-01T05:38:09.289Z,66.80
2018-10-01T05:40:37.869Z,66.80
2018-10-01T05:43:06.419Z,66.90
2018-10-01T05:45:34.897Z,66.90
2018-10-01T05:48:03.412Z,67.00
2018-10-01T05:50:32.053Z,67.00
2018-10-01T05:53:00.743Z,67.00
2018-10-01T05:55:29.273Z,67.10
2018-10-01T05:57:57.833Z,67.00
2018-10-01T06:00:26.461Z,66.90
2018-10-01T06:02:55.080Z,66.90
2018-10-01T06:05:23.723Z,66.90
2018-10-01T06:07:52.318Z,66.90
2018-10-01T06:10:20.813Z,66.80
2018-10-01T06:12:49.397Z,66.80
2018-10-01T06:15:18.023Z,66.80
2018-10-01T06:17:47.089Z,66.90
2018-10-01T06:20:15.726Z,66.90
2018-10-01T06:22:44.352Z,67.00
2018-10-01T06:25:13.013Z,67.00
2018-10-01T06:27:41.662Z,67.10
2018-10-01T06:30:10.224Z,67.20
2018-10-01T06:32:38.897Z,67.20
2018-10-01T06:35:07.414Z,67.30
2018-10-01T06:37:36.056Z,67.30
2018-10-01T06:40:04.922Z,67.30
2018-10-01T06:42:33.602Z,67.40
2018-10-01T06:45:02.193Z,67.40
2018-10-01T06:47:30.864Z,68.20
2018-10-01T06:49:59.439Z,67.40
2018-10-01T06:52:28.002Z,68.10
2018-10-01T06:54:56.615Z,67.40
2018-10-01T06:57:25.161Z,67.30
2018-10-01T06:59:53.777Z,67.30
2018-10-01T07:02:22.472Z,67.40
2018-10-01T07:04:50.992Z,67.40
2018-10-01T07:07:19.540Z,67.40
2018-10-01T07:09:48.033Z,67.60
2018-10-01T07:12:16.568Z,67.50
2018-10-01T07:14:45.344Z,67.50
2018-10-01T07:17:14.066Z,67.40
2018-10-01T07:19:42.931Z,67.50
2018-10-01T07:22:11.484Z,67.30
2018-10-01T07:24:40.024Z,67.30
2018-10-01T07:27:08.588Z,67.30
2018-10-01T07:29:37.175Z,67.30
2018-10-01T07:32:05.788Z,68.10
2018-10-01T07:34:34.267Z,67.30
2018-10-01T07:37:02.837Z,67.20
2018-10-01T07:39:31.387Z,67.20
2018-10-01T07:41:59.930Z,67.20
2018-10-01T07:44:28.500Z,67.20
2018-10-01T07:46:57.032Z,67.20
2018-10-01T07:49:25.547Z,67.30
2018-10-01T07:51:54.118Z,67.50
2018-10-01T07:54:22.999Z,67.80
2018-10-01T07:56:51.894Z,67.80
2018-10-01T07:59:20.505Z,67.80
2018-10-01T08:01:48.941Z,67.70
2018-10-01T08:04:17.398Z,67.70
2018-10-01T08:06:45.851Z,67.60
2018-10-01T08:09:14.375Z,67.50
2018-10-01T08:11:42.860Z,67.40
2018-10-01T08:14:11.408Z,67.10
2018-10-01T08:16:40.263Z,67.00
2018-10-01T08:19:08.804Z,67.00
2018-10-01T08:21:37.259Z,67.00
2018-10-01T08:24:05.762Z,66.70
2018-10-01T08:26:34.483Z,66.80
2018-10-01T08:29:03.758Z,66.80
2018-10-01T08:31:32.730Z,67.00
2018-10-01T08:34:01.635Z,67.10
2018-10-01T08:36:30.097Z,67.10
2018-10-01T08:38:59.543Z,67.20
2018-10-01T08:41:28.145Z,67.40
2018-10-01T08:43:56.752Z,67.20
2018-10-01T08:46:25.290Z,67.10
2018-10-01T08:49:56.654Z,67.20
2018-10-01T08:52:29.181Z,67.40
2018-10-01T08:54:57.828Z,67.30
2018-10-01T08:57:26.339Z,67.10
2018-10-01T08:59:54.963Z,67.50
2018-10-01T09:02:23.498Z,66.60
2018-10-01T09:04:52.047Z,66.40
2018-10-01T09:07:20.689Z,67.00
2018-10-01T09:09:49.194Z,66.60
2018-10-01T09:12:17.672Z,66.60
2018-10-01T09:14:46.312Z,66.90
2018-10-01T09:17:15.049Z,67.10
2018-10-01T09:19:43.623Z,67.30
2018-10-01T09:22:12.248Z,67.40
2018-10-01T09:24:40.751Z,67.40
2018-10-01T09:27:09.207Z,67.40
2018-10-01T09:29:37.841Z,67.40
2018-10-01T09:32:06.413Z,67.40
2018-10-01T09:34:34.997Z,67.30
2018-10-01T09:37:03.618Z,67.00
2018-10-01T09:39:32.142Z,67.20
2018-10-01T09:42:00.800Z,67.20
2018-10-01T09:44:29.393Z,67.50
2018-10-01T09:46:57.901Z,67.50
2018-10-01T09:49:26.386Z,67.50
2018-10-01T09:51:54.994Z,67.10
2018-10-01T09:54:23.576Z,67.20
2018-10-01T09:56:52.108Z,67.10
2018-10-01T09:59:20.679Z,67.00
2018-10-01T10:01:49.201Z,66.90
2018-10-01T10:04:17.732Z,67.00
2018-10-01T10:06:46.260Z,67.00
2018-10-01T10:09:14.767Z,67.00
2018-10-01T10:11:43.279Z,67.20
2018-10-01T10:14:11.803Z,67.20
2018-10-01T10:16:40.485Z,67.00
2018-10-01T10:19:08.892Z,66.70
2018-10-01T10:21:37.430Z,66.20
2018-10-01T10:24:06.022Z,65.80
2018-10-01T10:26:34.555Z,65.70
2018-10-01T10:29:03.219Z,66.30
2018-10-01T10:31:31.744Z,66.90
2018-10-01T10:34:00.395Z,67.10
2018-10-01T10:36:29.843Z,67.80
2018-10-01T10:38:58.344Z,67.00
2018-10-01T10:41:26.792Z,67.10
2018-10-01T10:43:55.369Z,67.00
2018-10-01T10:46:23.781Z,66.80
2018-10-01T10:48:52.270Z,66.90
2018-10-01T10:51:20.710Z,67.00
2018-10-01T10:53:49.219Z,67.40
2018-10-01T10:56:17.718Z,67.90
2018-10-01T10:58:46.211Z,67.70
2018-10-01T11:01:14.646Z,68.00
2018-10-01T11:03:43.101Z,68.30
2018-10-01T11:06:11.555Z,68.40
2018-10-01T11:08:40.093Z,68.40
2018-10-01T11:11:08.511Z,68.50
2018-10-01T11:13:37.055Z,68.60
2018-10-01T11:16:05.508Z,68.50
2018-10-01T11:18:34.073Z,68.70
2018-10-01T11:21:02.566Z,68.60
2018-10-01T11:23:30.987Z,68.60
2018-10-01T11:25:59.446Z,68.50
2018-10-01T11:28:27.929Z,69.30
2018-10-01T11:30:56.456Z,68.40
2018-10-01T11:33:25.222Z,68.40
2018-10-01T11:35:53.760Z,68.30
2018-10-01T11:38:22.219Z,68.40
2018-10-01T11:40:50.682Z,68.40
2018-10-01T11:43:19.107Z,68.40
2018-10-01T11:45:47.621Z,68.40
2018-10-01T11:48:16.121Z,68.20
2018-10-01T11:50:44.587Z,68.20
2018-10-01T11:53:13.039Z,68.20
2018-10-01T11:55:41.500Z,68.30
2018-10-01T11:58:10.000Z,68.30
2018-10-01T12:00:38.595Z,68.40
2018-10-01T12:03:07.144Z,68.50
2018-10-01T12:05:35.614Z,68.40
2018-10-01T12:08:04.124Z,68.20
2018-10-01T12:10:32.640Z,68.10
2018-10-01T12:13:01.108Z,68.00
2018-10-01T12:15:29.686Z,68.00
2018-10-01T12:17:58.100Z,67.90
2018-10-01T12:20:26.575Z,68.20
2018-10-01T12:22:55.043Z,68.20
2018-10-01T12:25:23.539Z,68.20
2018-10-01T12:27:52.025Z,68.20
2018-10-01T12:30:20.502Z,68.30
2018-10-01T12:32:49.015Z,68.40
2018-10-01T12:35:17.563Z,68.30
2018-10-01T12:37:46.379Z,68.40
2018-10-01T12:40:14.940Z,68.40
2018-10-01T12:42:43.512Z,68.40
2018-10-01T12:45:11.991Z,68.40
2018-10-01T12:47:40.544Z,68.40
2018-10-01T12:50:08.991Z,68.40
2018-10-01T12:52:37.500Z,68.40
2018-10-01T12:55:05.960Z,68.40
2018-10-01T12:57:34.480Z,68.40
2018-10-01T13:00:03.035Z,68.30
2018-10-01T13:02:31.487Z,68.30
2018-10-01T13:05:00.029Z,68.10
2018-10-01T13:07:28.447Z,68.20
2018-10-01T13:09:56.961Z,68.00
2018-10-01T13:12:25.460Z,68.00
2018-10-01T13:14:53.949Z,67.90
2018-10-01T13:17:22.402Z,67.70
2018-10-01T13:19:50.896Z,67.70
2018-10-01T13:22:19.368Z,67.60
2018-10-01T13:24:47.947Z,67.80
2018-10-01T13:27:16.417Z,67.70
2018-10-01T13:29:44.895Z,67.60
2018-10-01T13:32:13.462Z,67.60
2018-10-01T13:34:42.000Z,67.60
2018-10-01T13:37:10.516Z,68.40
2018-10-01T13:39:39.018Z,67.60
2018-10-01T13:42:07.762Z,67.60
2018-10-01T13:44:36.294Z,67.60
2018-10-01T13:47:04.791Z,68.40
2018-10-01T13:49:33.300Z,67.70
2018-10-01T13:52:01.785Z,67.70
2018-10-01T13:54:30.278Z,67.60
2018-10-01T13:56:58.709Z,67.60
2018-10-01T13:59:27.171Z,67.50
2018-10-01T14:01:55.833Z,67.30
2018-10-01T14:04:24.269Z,67.40
2018-10-01T14:06:52.753Z,67.20
2018-10-01T14:09:21.200Z,67.10
2018-10-01T14:11:49.743Z,67.00
2018-10-01T14:14:18.251Z,66.90
2018-10-01T14:16:46.834Z,66.80
2018-10-01T14:19:15.436Z,66.50
2018-10-01T14:21:43.823Z,66.30
2018-10-01T14:24:12.284Z,66.30
2018-10-01T14:26:40.719Z,66.30
2018-10-01T14:29:09.191Z,67.10
2018-10-01T14:31:37.710Z,66.20
2018-10-01T14:34:06.195Z,65.90
2018-10-01T14:36:34.691Z,65.60
2018-10-01T14:39:03.293Z,65.30
2018-10-01T14:41:31.719Z,65.40
2018-10-01T14:44:00.245Z,65.30
2018-10-01T14:46:28.828Z,65.60
2018-10-01T14:48:57.347Z,65.90
2018-10-01T14:51:25.783Z,65.90
2018-10-01T14:53:54.317Z,66.00
2018-10-01T14:56:22.789Z,66.00
2018-10-01T14:58:51.310Z,66.70
2018-10-01T15:01:19.879Z,66.10
2018-10-01T15:03:48.571Z,66.10
2018-10-01T15:06:17.094Z,66.40
2018-10-01T15:08:45.626Z,66.50
2018-10-01T15:11:14.333Z,66.70
2018-10-01T15:13:42.897Z,66.50
2018-10-01T15:16:11.632Z,66.50
2018-10-01T15:18:40.172Z,66.40
2018-10-01T15:21:08.820Z,66.30
2018-10-01T15:23:37.295Z,66.10
2018-10-01T15:26:05.775Z,66.10
2018-10-01T15:28:34.476Z,66.20
2018-10-01T15:31:02.950Z,66.00
2018-10-01T15:33:32.423Z,65.80
2018-10-01T15:36:00.944Z,65.80
2018-10-01T15:38:29.475Z,65.90
2018-10-01T15:40:57.907Z,65.90
2018-10-01T15:43:26.371Z,65.90
2018-10-01T15:45:54.823Z,65.90
2018-10-01T15:48:23.307Z,65.80
2018-10-01T15:50:51.718Z,65.60
2018-10-01T15:53:20.207Z,65.60
2018-10-01T15:55:48.852Z,65.40
2018-10-01T15:58:17.400Z,65.60
2018-10-01T16:00:45.967Z,65.70
2018-10-01T16:03:14.448Z,66.20
2018-10-01T16:05:43.671Z,65.70
2018-10-01T16:08:12.169Z,65.60
2018-10-01T16:10:40.646Z,65.60
2018-10-01T16:13:09.163Z,65.60
2018-10-01T16:15:37.650Z,65.60
2018-10-01T16:18:06.190Z,65.60
2018-10-01T16:20:34.892Z,65.80
2018-10-01T16:23:03.487Z,66.30
2018-10-01T16:25:32.018Z,65.80
2018-10-01T16:28:00.578Z,65.80
2018-10-01T16:30:29.084Z,65.70
2018-10-01T16:32:57.542Z,65.70
2018-10-01T16:35:26.066Z,65.70
2018-10-01T16:37:54.665Z,65.60
2018-10-01T16:40:23.276Z,65.50
2018-10-01T16:42:51.820Z,65.70
2018-10-01T16:45:20.292Z,65.70
2018-10-01T16:47:48.760Z,66.00
2018-10-01T16:50:17.284Z,66.10
2018-10-01T16:52:45.760Z,66.10
2018-10-01T16:55:14.316Z,65.70
2018-10-01T16:57:42.987Z,65.60
2018-10-01T17:00:11.708Z,65.70
2018-10-01T17:02:40.179Z,65.80
2018-10-01T17:05:08.632Z,67.20
2018-10-01T17:07:37.080Z,67.50
2018-10-01T17:10:05.825Z,67.50
2018-10-01T17:12:34.349Z,67.40
2018-10-01T17:15:02.998Z,67.40
2018-10-01T17:17:31.431Z,67.30
2018-10-01T17:19:59.943Z,67.40
2018-10-01T17:22:28.485Z,67.60
2018-10-01T17:24:56.919Z,67.70
2018-10-01T17:27:25.469Z,67.80
2018-10-01T17:29:53.960Z,67.90
2018-10-01T17:32:22.535Z,67.90
2018-10-01T17:34:51.010Z,68.00
2018-10-01T17:37:19.633Z,68.10
2018-10-01T17:39:48.181Z,68.20
2018-10-01T17:42:16.779Z,68.20
2018-10-01T17:44:45.285Z,68.20
2018-10-01T17:47:13.786Z,68.20
2018-10-01T17:49:42.332Z,68.20
2018-10-01T17:52:10.883Z,68.30
2018-10-01T17:54:39.341Z,68.20
2018-10-01T17:57:07.961Z,68.20
2018-10-01T17:59:36.487Z,68.20
2018-10-01T18:02:05.160Z,68.20
2018-10-01T18:04:34.556Z,68.20
2018-10-01T18:07:03.397Z,68.90
2018-10-01T18:09:36.186Z,68.10
2018-10-01T18:12:05.585Z,68.10
2018-10-01T18:14:35.186Z,68.00
2018-10-01T18:17:03.817Z,68.00
2018-10-01T18:19:32.591Z,68.10
2018-10-01T18:22:01.349Z,68.10
2018-10-01T18:24:32.253Z,68.20
2018-10-01T18:29:40.784Z,68.10
2018-10-01T18:32:09.723Z,68.20
2018-10-01T18:34:38.430Z,68.20
2018-10-01T18:37:07.455Z,68.30
2018-10-01T18:39:36.133Z,68.30
2018-10-01T18:42:04.697Z,68.30
2018-10-01T18:44:33.102Z,68.40
2018-10-01T18:47:01.610Z,68.40
2018-10-01T18:49:30.073Z,68.40
2018-10-01T18:51:58.592Z,68.50
2018-10-01T18:54:27.088Z,68.50
2018-10-01T18:56:55.904Z,68.60
2018-10-01T18:59:24.378Z,68.70
2018-10-01T19:01:52.932Z,69.40
2018-10-01T19:04:21.397Z,68.70
2018-10-01T19:06:49.894Z,68.80
2018-10-01T19:09:18.363Z,68.70
2018-10-01T19:11:46.879Z,68.80
2018-10-01T19:23:17.090Z,68.90
2018-10-01T19:25:45.784Z,68.80
2018-10-01T19:28:14.649Z,68.60
2018-10-01T19:30:44.002Z,68.60
2018-10-01T19:33:13.059Z,68.70
2018-10-01T19:35:43.330Z,68.80
2018-10-01T19:38:12.010Z,68.80
2018-10-01T19:40:40.656Z,68.90
2018-10-01T19:43:09.288Z,68.90
2018-10-01T19:45:37.965Z,68.80
2018-10-01T19:48:06.870Z,68.60
2018-10-01T19:50:35.363Z,68.50
2018-10-01T19:53:03.924Z,68.40
2018-10-01T19:55:32.380Z,68.40
2018-10-01T19:58:00.819Z,68.40
2018-10-01T20:00:29.386Z,68.60
2018-10-01T20:02:58.020Z,68.50
2018-10-01T20:05:26.450Z,68.50
2018-10-01T20:07:54.992Z,68.70
2018-10-01T20:10:23.465Z,68.80
2018-10-01T20:12:51.956Z,68.80
2018-10-01T20:15:20.478Z,68.80
2018-10-01T20:17:49.358Z,68.90
2018-10-01T20:20:18.342Z,68.90
2018-10-01T20:22:46.839Z,68.90
2018-10-01T20:25:15.342Z,68.90
2018-10-01T20:27:43.899Z,68.90
2018-10-01T20:30:12.380Z,69.70
2018-10-01T20:32:41.040Z,68.90
2018-10-01T20:35:09.653Z,68.90
2018-10-01T20:37:38.083Z,68.80
2018-10-01T20:40:07.503Z,68.90
2018-10-01T20:42:36.024Z,68.90
2018-10-01T20:45:04.515Z,68.90
2018-10-01T20:47:32.996Z,68.90
2018-10-01T20:50:01.517Z,69.00
2018-10-01T20:52:30.075Z,69.00
2018-10-01T20:54:58.422Z,69.00
2018-10-01T20:57:26.867Z,68.90
2018-10-01T20:59:55.340Z,68.90
2018-10-01T21:02:23.864Z,68.80
2018-10-01T21:04:52.319Z,68.80
2018-10-01T21:07:20.740Z,68.90
2018-10-01T21:09:49.191Z,68.90
2018-10-01T21:12:17.720Z,69.00
2018-10-01T21:14:46.212Z,69.00
2018-10-01T21:17:14.677Z,69.00
2018-10-01T21:19:43.634Z,69.10
2018-10-01T21:22:12.079Z,69.00
2018-10-01T21:24:40.567Z,69.20
2018-10-01T21:27:09.012Z,69.20
2018-10-01T21:29:37.568Z,69.30
2018-10-01T21:32:06.064Z,69.30
2018-10-01T21:34:34.520Z,69.30
2018-10-01T21:37:03.005Z,69.50
2018-10-01T21:39:57.968Z,69.40
2018-10-01T21:42:26.832Z,69.30
2018-10-01T21:44:55.305Z,69.00
2018-10-01T21:47:24.210Z,69.00
2018-10-01T21:49:55.349Z,69.70
2018-10-01T21:52:24.875Z,68.90
2018-10-01T21:54:53.600Z,69.00
2018-10-01T21:57:22.169Z,69.00
2018-10-01T21:59:51.913Z,69.10
2018-10-01T22:02:20.849Z,69.10
2018-10-01T22:04:50.620Z,69.10
2018-10-01T22:07:19.354Z,69.10
2018-10-01T22:09:48.612Z,69.20
2018-10-01T22:12:17.631Z,69.30
2018-10-01T22:14:47.333Z,69.30
2018-10-01T22:17:18.964Z,69.30
2018-10-01T22:19:47.610Z,69.30
2018-10-01T22:22:16.745Z,69.30
2018-10-01T22:24:49.979Z,69.40
2018-10-01T22:27:18.520Z,69.80
2018-10-01T22:29:47.189Z,69.40
2018-10-01T22:32:21.568Z,69.50
2018-10-01T22:34:50.256Z,69.50
2018-10-01T22:37:18.828Z,69.50
2018-10-01T22:39:48.564Z,69.50
2018-10-01T22:42:18.698Z,69.60
2018-10-01T22:44:47.289Z,69.60
2018-10-01T22:47:16.258Z,69.70
2018-10-01T22:49:45.338Z,69.60
2018-10-01T22:52:14.440Z,69.50
2018-10-01T22:54:43.080Z,69.90
2018-10-01T22:57:11.835Z,69.60
2018-10-01T22:59:41.789Z,69.60
2018-10-01T23:02:10.904Z,69.80
2018-10-01T23:04:40.110Z,69.70
2018-10-01T23:07:09.980Z,69.70
2018-10-01T23:09:38.607Z,69.80
2018-10-01T23:12:07.839Z,69.70
2018-10-01T23:14:37.177Z,69.70
2018-10-01T23:17:08.042Z,69.70
2018-10-01T23:19:36.760Z,69.70
2018-10-01T23:22:06.534Z,69.60
2018-10-01T23:24:35.198Z,69.60
2018-10-01T23:27:03.752Z,69.60
2018-10-01T23:29:32.482Z,69.50
2018-10-01T23:32:01.234Z,69.50
2018-10-01T23:34:29.858Z,69.60
2018-10-01T23:36:59.019Z,69.70
2018-10-01T23:39:27.583Z,69.70
2018-10-01T23:41:56.027Z,69.70
2018-10-01T23:44:24.558Z,69.50
2018-10-01T23:46:53.132Z,69.50
2018-10-01T23:49:21.602Z,69.30
2018-10-01T23:51:50.068Z,69.30
2018-10-01T23:54:19.015Z,69.30
2018-10-01T23:56:47.920Z,69.70
2018-10-01T23:59:16.680Z,69.30
